createdAt,value
2023-03-05T00:01:02.840Z,1.00
2023-03-05T00:04:05.797Z,1.10
2023-03-05T00:07:08.924Z,0.90
2023-03-05T00:10:11.847Z,1.00
2023-03-05T00:13:15.158Z,1.08
2023-03-05T00:16:17.805Z,1.30
2023-03-05T00:19:20.064Z,1.13
2023-03-05T00:22:22.296Z,0.95
2023-03-05T00:25:25.147Z,1.00
2023-03-05T00:28:28.123Z,1.15
2023-03-05T00:31:31.066Z,1.10
2023-03-05T00:34:34.121Z,0.80
2023-03-05T00:37:37.165Z,0.93
2023-03-05T00:40:40.212Z,0.90
2023-03-05T00:43:42.748Z,1.00
2023-03-05T00:46:45.039Z,0.80
2023-03-05T00:49:47.738Z,1.13
2023-03-05T00:52:51.172Z,0.93
2023-03-05T00:55:53.700Z,0.85
2023-03-05T00:58:56.200Z,1.10
2023-03-05T01:01:58.535Z,0.80
2023-03-05T01:05:01.723Z,1.05
2023-03-05T01:08:05.137Z,0.82
2023-03-05T01:11:08.227Z,1.00
2023-03-05T01:14:10.852Z,1.10
2023-03-05T01:17:14.679Z,1.15
2023-03-05T01:20:18.486Z,1.05
2023-03-05T01:23:21.559Z,1.00
2023-03-05T01:26:24.528Z,1.00
2023-03-05T01:29:27.921Z,1.17
2023-03-05T01:32:30.659Z,1.00
2023-03-05T01:35:33.736Z,1.02
2023-03-05T01:38:36.890Z,0.95
2023-03-05T01:41:40.244Z,0.93
2023-03-05T01:44:42.757Z,0.90
2023-03-05T01:47:45.426Z,0.80
2023-03-05T01:50:48.863Z,0.98
2023-03-05T01:53:52.051Z,1.20
2023-03-05T01:56:55.029Z,1.00
2023-03-05T01:59:57.595Z,0.90
2023-03-05T02:03:00.312Z,1.10
2023-03-05T02:06:04.539Z,1.02
2023-03-05T02:09:08.078Z,1.10
2023-03-05T02:12:10.756Z,0.80
2023-03-05T02:15:13.911Z,0.80
2023-03-05T02:18:16.631Z,1.20
2023-03-05T02:21:20.186Z,1.10
2023-03-05T02:24:22.245Z,1.00
2023-03-05T02:27:25.404Z,0.90
2023-03-05T02:30:30.519Z,1.00
2023-03-05T02:33:34.044Z,0.80
2023-03-05T02:36:36.402Z,1.05
2023-03-05T02:39:38.849Z,1.02
2023-03-05T02:42:42.524Z,1.20
2023-03-05T02:45:46.828Z,0.80
2023-03-05T02:48:49.533Z,1.10
2023-03-05T02:51:52.634Z,0.95
2023-03-05T02:54:54.913Z,0.88
2023-03-05T02:57:59.265Z,1.10
2023-03-05T03:01:03.392Z,1.35
2023-03-05T03:04:06.144Z,0.98
2023-03-05T03:07:08.980Z,1.00
2023-03-05T03:10:11.610Z,1.00
2023-03-05T03:13:14.099Z,0.80
2023-03-05T03:16:17.042Z,0.85
2023-03-05T03:19:20.126Z,1.00
2023-03-05T03:22:23.306Z,1.05
2023-03-05T03:25:26.198Z,1.00
2023-03-05T03:28:29.555Z,0.80
2023-03-05T03:31:32.505Z,0.75
2023-03-05T03:34:36.299Z,0.95
2023-03-05T03:37:38.759Z,1.27
2023-03-05T03:40:41.079Z,1.08
2023-03-05T03:43:43.646Z,0.75
2023-03-05T03:46:47.035Z,1.10
2023-03-05T03:49:50.286Z,1.15
2023-03-05T03:52:53.585Z,0.95
2023-03-05T03:55:56.826Z,1.05
2023-03-05T03:58:59.757Z,0.82
2023-03-05T04:02:02.478Z,1.10
2023-03-05T04:05:04.869Z,1.00
2023-03-05T04:08:08.614Z,1.10
2023-03-05T04:11:11.494Z,1.20
2023-03-05T04:14:14.058Z,1.30
2023-03-05T04:17:16.725Z,1.20
2023-03-05T04:20:19.134Z,1.10
2023-03-05T04:23:22.345Z,1.40
2023-03-05T04:26:26.124Z,0.90
2023-03-05T04:29:28.555Z,1.10
2023-03-05T04:32:31.651Z,1.20
2023-03-05T04:35:34.040Z,1.17
2023-03-05T04:38:36.893Z,1.08
2023-03-05T04:41:40.137Z,1.10
2023-03-05T04:44:42.961Z,1.05
2023-03-05T04:47:46.107Z,1.00
2023-03-05T04:50:48.699Z,1.00
2023-03-05T04:53:51.438Z,1.00
2023-03-05T04:56:54.064Z,1.00
2023-03-05T04:59:57.391Z,0.98
2023-03-05T05:03:01.330Z,0.90
2023-03-05T05:06:04.480Z,0.90
2023-03-05T05:09:07.149Z,0.80
2023-03-05T05:12:10.463Z,1.10
2023-03-05T05:15:13.922Z,1.00
2023-03-05T05:18:16.637Z,0.80
2023-03-05T05:21:19.259Z,0.60
2023-03-05T05:24:21.759Z,0.90
2023-03-05T05:27:24.457Z,1.08
2023-03-05T05:30:27.140Z,0.95
2023-03-05T05:33:29.413Z,0.77
2023-03-05T05:36:32.514Z,0.90
2023-03-05T05:39:36.437Z,0.75
2023-03-05T05:42:39.122Z,1.00
2023-03-05T05:45:41.845Z,0.98
2023-03-05T05:48:45.006Z,1.17
2023-03-05T05:51:47.682Z,1.00
2023-03-05T05:54:50.764Z,0.80
2023-03-05T05:57:53.507Z,1.10
2023-03-05T06:00:56.922Z,0.90
2023-03-05T06:03:59.502Z,0.77
2023-03-05T06:07:02.531Z,1.00
2023-03-05T06:10:04.818Z,1.00
2023-03-05T06:13:08.067Z,0.70
2023-03-05T06:16:11.113Z,1.10
2023-03-05T06:19:14.236Z,1.05
2023-03-05T06:22:16.762Z,1.33
2023-03-05T06:25:19.821Z,1.25
2023-03-05T06:28:22.526Z,1.23
2023-03-05T06:31:25.589Z,1.30
2023-03-05T06:34:28.242Z,1.00
2023-03-05T06:37:30.878Z,1.10
2023-03-05T06:40:33.870Z,1.27
2023-03-05T06:43:36.503Z,1.10
2023-03-05T06:46:38.758Z,1.20
2023-03-05T06:49:41.175Z,1.08
2023-03-05T06:52:44.729Z,1.00
2023-03-05T06:55:47.661Z,1.15
2023-03-05T06:58:50.533Z,1.05
2023-03-05T07:01:53.840Z,1.00
2023-03-05T07:04:56.879Z,1.02
2023-03-05T07:07:59.088Z,0.95
2023-03-05T07:11:01.979Z,1.10
2023-03-05T07:14:04.991Z,1.13
2023-03-05T07:17:07.597Z,0.98
2023-03-05T07:20:11.012Z,1.00
2023-03-05T07:23:14.510Z,1.30
2023-03-05T07:26:17.536Z,1.30
2023-03-05T07:29:20.497Z,0.88
2023-03-05T07:32:23.589Z,0.93
2023-03-05T07:35:26.411Z,1.30
2023-03-05T07:38:28.710Z,1.20
2023-03-05T07:41:32.015Z,1.00
2023-03-05T07:44:34.562Z,0.90
2023-03-05T07:47:36.856Z,1.17
2023-03-05T07:50:39.853Z,1.00
2023-03-05T07:53:43.009Z,1.10
2023-03-05T07:56:46.092Z,1.20
2023-03-05T07:59:49.838Z,1.10
2023-03-05T08:02:52.863Z,1.08
2023-03-05T08:05:55.659Z,1.05
2023-03-05T08:08:58.195Z,0.90
2023-03-05T08:12:01.594Z,1.20
2023-03-05T08:15:04.579Z,0.88
2023-03-05T08:18:08.014Z,1.10
2023-03-05T08:21:10.953Z,1.02
2023-03-05T08:24:14.261Z,1.00
2023-03-05T08:27:17.489Z,1.10
2023-03-05T08:30:20.895Z,1.00
2023-03-05T08:33:24.794Z,1.00
2023-03-05T08:36:28.983Z,1.00
2023-03-05T08:39:32.167Z,1.10
2023-03-05T08:42:35.555Z,0.90
2023-03-05T08:45:37.806Z,1.00
2023-03-05T08:48:40.907Z,0.90
2023-03-05T08:51:43.937Z,0.80
2023-03-05T08:54:46.475Z,1.00
2023-03-05T08:57:49.340Z,1.02
2023-03-05T09:00:52.368Z,0.93
2023-03-05T09:03:55.288Z,0.80
2023-03-05T09:06:57.872Z,1.00
2023-03-05T09:10:00.826Z,0.90
2023-03-05T09:13:03.956Z,1.10
2023-03-05T09:16:07.471Z,1.02
2023-03-05T09:19:10.201Z,0.98
2023-03-05T09:22:13.735Z,0.90
2023-03-05T09:25:16.032Z,0.80
2023-03-05T09:28:19.233Z,0.90
2023-03-05T09:31:22.621Z,1.10
2023-03-05T09:34:25.128Z,0.80
2023-03-05T09:37:27.812Z,0.88
2023-03-05T09:40:30.796Z,0.98
2023-03-05T09:43:33.748Z,0.75
2023-03-05T09:46:35.956Z,0.80
2023-03-05T09:49:38.797Z,0.80
2023-03-05T09:52:42.242Z,0.90
2023-03-05T09:55:45.072Z,1.13
2023-03-05T09:58:48.907Z,0.70
2023-03-05T10:01:51.961Z,0.90
2023-03-05T10:04:54.904Z,0.70
2023-03-05T10:07:57.489Z,1.00
2023-03-05T10:11:00.505Z,0.82
2023-03-05T10:14:03.645Z,0.60
2023-03-05T10:17:06.443Z,0.82
2023-03-05T10:20:09.305Z,0.60
2023-03-05T10:23:12.447Z,0.80
2023-03-05T10:26:15.993Z,0.80
2023-03-05T10:29:19.918Z,0.70
2023-03-05T10:32:22.528Z,0.60
2023-03-05T10:35:25.491Z,0.60
2023-03-05T10:38:28.499Z,0.80
2023-03-05T10:41:31.547Z,0.80
2023-03-05T10:44:34.471Z,0.80
2023-03-05T10:47:37.271Z,0.82
2023-03-05T10:50:40.417Z,0.70
2023-03-05T10:53:43.966Z,0.90
2023-03-05T10:56:46.265Z,0.70
2023-03-05T10:59:49.000Z,0.90
2023-03-05T11:02:52.211Z,0.60
2023-03-05T11:05:55.738Z,0.68
2023-03-05T11:08:58.037Z,0.60
2023-03-05T11:12:00.731Z,0.70
2023-03-05T11:15:03.868Z,0.60
2023-03-05T11:18:06.914Z,0.73
2023-03-05T11:21:09.364Z,0.60
2023-03-05T11:24:12.771Z,0.65
2023-03-05T11:27:15.464Z,0.60
2023-03-05T11:30:18.153Z,0.80
2023-03-05T11:33:20.837Z,0.50
2023-03-05T11:36:23.878Z,0.70
2023-03-05T11:39:27.070Z,0.60
2023-03-05T11:42:31.029Z,0.60
2023-03-05T11:45:34.059Z,0.57
2023-03-05T11:48:36.833Z,0.50
2023-03-05T11:51:39.906Z,0.52
2023-03-05T11:54:42.513Z,0.70
2023-03-05T11:57:44.730Z,0.60
2023-03-05T12:00:47.761Z,0.60
2023-03-05T12:03:51.024Z,0.75
2023-03-05T12:06:54.113Z,0.60
2023-03-05T12:09:57.473Z,0.55
2023-03-05T12:13:00.616Z,0.60
2023-03-05T12:16:03.347Z,0.52
2023-03-05T12:19:06.218Z,0.57
2023-03-05T12:22:09.331Z,0.50
2023-03-05T12:25:12.311Z,0.60
2023-03-05T12:28:14.548Z,0.50
2023-03-05T12:31:17.017Z,0.52
2023-03-05T12:34:20.908Z,0.40
2023-03-05T12:37:24.124Z,0.35
2023-03-05T12:40:27.545Z,0.38
2023-03-05T12:43:30.956Z,0.47
2023-03-05T12:46:33.953Z,0.60
2023-03-05T12:49:36.966Z,0.50
2023-03-05T12:52:39.643Z,0.47
2023-03-05T12:55:42.386Z,0.38
2023-03-05T12:58:44.884Z,0.50
2023-03-05T13:01:48.156Z,0.50
2023-03-05T13:04:51.504Z,0.45
2023-03-05T13:07:54.465Z,0.38
2023-03-05T13:10:57.352Z,0.50
2023-03-05T13:14:00.878Z,0.40
2023-03-05T13:17:03.604Z,0.50
2023-03-05T13:20:06.705Z,0.50
2023-03-05T13:23:10.119Z,0.47
2023-03-05T13:26:12.833Z,0.50
2023-03-05T13:29:15.579Z,0.40
2023-03-05T13:32:18.742Z,0.40
2023-03-05T13:35:22.364Z,0.50
2023-03-05T13:38:25.208Z,0.40
2023-03-05T13:41:28.921Z,0.52
2023-03-05T13:44:32.023Z,0.55
2023-03-05T13:47:34.972Z,0.50
2023-03-05T13:50:37.534Z,0.50
2023-03-05T13:53:40.897Z,0.65
2023-03-05T13:56:44.342Z,0.50
2023-03-05T13:59:48.443Z,0.50
2023-03-05T14:02:51.440Z,0.35
2023-03-05T14:05:53.854Z,0.45
2023-03-05T14:08:58.470Z,0.50
2023-03-05T14:12:02.298Z,0.60
2023-03-05T14:15:05.803Z,0.50
2023-03-05T14:18:08.967Z,0.40
2023-03-05T14:21:12.367Z,0.40
2023-03-05T14:24:15.218Z,0.40
2023-03-05T14:27:18.480Z,0.40
2023-03-05T14:30:21.048Z,0.28
2023-03-05T14:33:23.535Z,0.43
2023-03-05T14:36:26.548Z,0.40
2023-03-05T14:39:30.053Z,0.40
2023-03-05T14:42:33.223Z,0.40
2023-03-05T14:45:35.954Z,0.50
2023-03-05T14:48:39.124Z,0.30
2023-03-05T14:51:43.005Z,0.30
2023-03-05T14:54:46.332Z,0.30
2023-03-05T14:57:49.585Z,0.40
2023-03-05T15:00:52.480Z,0.43
2023-03-05T15:03:55.506Z,0.35
2023-03-05T15:06:58.471Z,0.35
2023-03-05T15:10:01.454Z,0.30
2023-03-05T15:13:04.504Z,0.30
2023-03-05T15:16:07.997Z,0.32
2023-03-05T15:19:10.569Z,0.40
2023-03-05T15:22:13.540Z,0.40
2023-03-05T15:25:16.682Z,0.40
2023-03-05T15:28:19.148Z,0.35
2023-03-05T15:31:21.672Z,0.32
2023-03-05T15:34:25.058Z,0.47
2023-03-05T15:37:28.077Z,0.40
2023-03-05T15:40:30.579Z,0.73
2023-03-05T15:43:33.395Z,0.50
2023-03-05T15:46:36.262Z,0.55
2023-03-05T15:49:39.094Z,0.60
2023-03-05T15:52:42.346Z,0.57
2023-03-05T15:55:45.803Z,0.43
2023-03-05T15:58:49.680Z,0.40
2023-03-05T16:01:52.269Z,0.40
2023-03-05T16:04:54.800Z,0.60
2023-03-05T16:07:57.759Z,0.40
2023-03-05T16:11:00.927Z,0.40
2023-03-05T16:14:04.429Z,0.50
2023-03-05T16:17:06.912Z,0.40
2023-03-05T16:20:09.764Z,0.52
2023-03-05T16:23:13.204Z,0.30
2023-03-05T16:26:15.833Z,0.30
2023-03-05T16:29:18.348Z,0.40
2023-03-05T16:32:21.234Z,0.40
2023-03-05T16:35:24.226Z,0.35
2023-03-05T16:38:27.363Z,0.40
2023-03-05T16:41:30.346Z,0.50
2023-03-05T16:44:32.571Z,0.40
2023-03-05T16:47:35.575Z,0.40
2023-03-05T16:50:39.019Z,0.70
2023-03-05T16:53:42.544Z,0.50
2023-03-05T16:56:45.856Z,0.40
2023-03-05T16:59:48.707Z,0.50
2023-03-05T17:02:51.160Z,0.65
2023-03-05T17:05:53.457Z,0.60
2023-03-05T17:08:56.195Z,0.40
2023-03-05T17:11:59.656Z,0.40
2023-03-05T17:15:02.346Z,0.60
2023-03-05T17:18:05.276Z,0.60
2023-03-05T17:21:07.525Z,0.50
2023-03-05T17:24:10.003Z,0.70
2023-03-05T17:27:12.874Z,0.70
2023-03-05T17:30:15.332Z,0.70
2023-03-05T17:33:19.003Z,0.65
2023-03-05T17:36:22.239Z,0.60
2023-03-05T17:39:26.130Z,0.55
2023-03-05T17:42:28.638Z,0.50
2023-03-05T17:45:30.978Z,0.55
2023-03-05T17:48:33.557Z,0.52
2023-03-05T17:51:36.460Z,0.50
2023-03-05T17:54:39.085Z,0.55
2023-03-05T17:57:41.451Z,0.50
2023-03-05T18:00:44.785Z,0.60
2023-03-05T18:03:48.124Z,0.60
2023-03-05T18:06:51.529Z,0.60
2023-03-05T18:09:55.013Z,0.70
2023-03-05T18:12:58.232Z,0.47
2023-03-05T18:16:02.052Z,0.60
2023-03-05T18:19:04.493Z,0.60
2023-03-05T18:22:07.705Z,0.60
2023-03-05T18:25:10.740Z,0.80
2023-03-05T18:28:13.394Z,0.82
2023-03-05T18:31:16.504Z,0.77
2023-03-05T18:34:19.894Z,0.70
2023-03-05T18:37:23.216Z,0.80
2023-03-05T18:40:26.016Z,0.70
2023-03-05T18:43:28.722Z,0.80
2023-03-05T18:46:31.388Z,0.70
2023-03-05T18:49:33.608Z,0.60
2023-03-05T18:52:36.276Z,0.80
2023-03-05T18:55:39.074Z,0.80
2023-03-05T18:58:42.595Z,0.70
2023-03-05T19:01:45.696Z,0.80
2023-03-05T19:04:48.765Z,0.80
2023-03-05T19:07:51.286Z,0.85
2023-03-05T19:10:54.356Z,0.90
2023-03-05T19:13:56.918Z,0.82
2023-03-05T19:16:59.807Z,0.85
2023-03-05T19:20:02.006Z,0.93
2023-03-05T19:23:04.409Z,0.90
2023-03-05T19:26:07.390Z,1.02
2023-03-05T19:29:10.491Z,0.90
2023-03-05T19:32:13.454Z,0.82
2023-03-05T19:35:15.896Z,0.90
2023-03-05T19:38:19.338Z,0.90
2023-03-05T19:41:22.358Z,0.70
2023-03-05T19:44:25.445Z,0.95
2023-03-05T19:47:28.169Z,0.73
2023-03-05T19:50:32.843Z,0.70
2023-03-05T19:53:35.840Z,0.80
2023-03-05T19:56:38.593Z,0.73
2023-03-05T19:59:41.462Z,0.70
2023-03-05T20:02:44.802Z,0.85
2023-03-05T20:05:48.252Z,0.80
2023-03-05T20:08:51.318Z,1.05
2023-03-05T20:11:54.406Z,0.95
2023-03-05T20:14:56.885Z,1.08
2023-03-05T20:17:59.868Z,1.13
2023-03-05T20:21:03.228Z,1.27
2023-03-05T20:24:07.798Z,1.40
2023-03-05T20:27:11.908Z,1.13
2023-03-05T20:30:14.970Z,1.30
2023-03-05T20:33:17.879Z,1.30
2023-03-05T20:36:20.834Z,1.40
2023-03-05T20:39:24.413Z,1.17
2023-03-05T20:42:27.476Z,1.30
2023-03-05T20:45:30.854Z,1.25
2023-03-05T20:48:34.696Z,1.55
2023-03-05T20:51:37.607Z,1.35
2023-03-05T20:54:40.455Z,1.40
2023-03-05T20:57:44.041Z,1.60
2023-03-05T21:00:47.247Z,1.70
2023-03-05T21:03:49.789Z,1.40
2023-03-05T21:06:52.820Z,1.70
2023-03-05T21:09:56.127Z,1.45
2023-03-05T21:13:00.946Z,1.55
2023-03-05T21:16:03.864Z,1.55
2023-03-05T21:19:07.324Z,1.40
2023-03-05T21:22:10.929Z,1.60
2023-03-05T21:25:13.853Z,1.60
2023-03-05T21:28:16.499Z,1.40
2023-03-05T21:31:19.291Z,1.50
2023-03-05T21:34:21.684Z,1.40
2023-03-05T21:37:25.136Z,1.27
2023-03-05T21:40:28.723Z,1.40
2023-03-05T21:43:31.710Z,1.27
2023-03-05T21:46:34.425Z,1.35
2023-03-05T21:49:37.237Z,1.40
2023-03-05T21:52:40.249Z,1.35
2023-03-05T21:55:43.781Z,1.23
2023-03-05T21:58:46.121Z,1.27
2023-03-05T22:01:48.409Z,1.20
2023-03-05T22:04:51.157Z,1.15
2023-03-05T22:07:53.423Z,1.20
2023-03-05T22:10:56.512Z,1.10
2023-03-05T22:13:59.010Z,1.25
2023-03-05T22:17:02.175Z,1.00
2023-03-05T22:20:05.790Z,1.20
2023-03-05T22:23:08.762Z,1.30
2023-03-05T22:26:11.474Z,1.38
2023-03-05T22:29:15.285Z,1.13
2023-03-05T22:32:18.265Z,1.17
2023-03-05T22:35:21.588Z,1.23
2023-03-05T22:38:25.504Z,1.15
2023-03-05T22:41:29.017Z,1.10
2023-03-05T22:44:31.568Z,1.25
2023-03-05T22:47:34.024Z,1.20
2023-03-05T22:50:36.239Z,1.20
2023-03-05T22:53:38.950Z,1.40
2023-03-05T22:56:41.935Z,1.17
2023-03-05T22:59:44.818Z,1.30
2023-03-05T23:02:48.700Z,1.38
2023-03-05T23:05:52.305Z,1.50
2023-03-05T23:08:55.613Z,1.30
2023-03-05T23:11:59.123Z,1.15
2023-03-05T23:15:01.472Z,1.00
2023-03-05T23:18:04.116Z,1.20
2023-03-05T23:21:07.194Z,1.20
2023-03-05T23:24:10.146Z,1.23
2023-03-05T23:27:13.149Z,1.08
2023-03-05T23:30:16.027Z,1.13
2023-03-05T23:33:19.166Z,1.27
2023-03-05T23:36:22.653Z,1.30
2023-03-05T23:39:25.430Z,1.10
2023-03-05T23:42:28.635Z,1.38
2023-03-05T23:45:31.922Z,1.20
2023-03-05T23:48:34.350Z,1.25
2023-03-05T23:51:37.391Z,1.00
2023-03-05T23:54:41.031Z,1.10
2023-03-05T23:57:44.120Z,1.30
